Time;durP1;ratioP1;P1;durP2;ratioP2;P2;SDS_P1;SDS_P2;PMS_P1;PMS_P2;Temp;Humidity;BMP_temperature;BMP_pressure;BME280_temperature;BME280_humidity;BME280_pressure;Samples;Min_cycle;Max_cycle;Signal;HPM_P1;HPM_P2
2023/10/10 00:02:19;;;;;;;;;;;15.90;99.90;;;;;;5058398;28;19916;-57
2023/10/10 00:04:47;;;;;;;;;;;15.90;99.90;;;;;;5058432;28;19909;-56
2023/10/10 00:07:15;;;;;;;;;;;15.90;99.90;;;;;;5058197;28;19919;-56
2023/10/10 00:09:44;;;;;;;;;;;15.80;99.90;;;;;;5058208;28;19908;-57
2023/10/10 00:12:12;;;;;;;;;;;15.80;99.90;;;;;;5058222;28;19995;-57
2023/10/10 00:14:39;;;;;;;;;;;15.80;99.90;;;;;;5057963;28;19908;-57
2023/10/10 00:17:08;;;;;;;;;;;15.90;99.90;;;;;;5058168;28;19959;-57
2023/10/10 00:19:43;;;;;;;;;;;15.90;99.90;;;;;;5058137;28;19909;-57
2023/10/10 00:22:09;;;;;;;;;;;15.80;99.90;;;;;;5058008;28;19912;-56
2023/10/10 00:24:35;;;;;;;;;;;15.90;99.90;;;;;;5058358;28;19908;-56
2023/10/10 00:27:12;;;;;;;;;;;15.90;99.90;;;;;;5057906;28;20358;-56
2023/10/10 00:29:42;;;;;;;;;;;15.90;99.90;;;;;;5040079;28;19916;-56
2023/10/10 00:32:17;;;;;;;;;;;15.80;99.90;;;;;;5057825;28;19991;-57
2023/10/10 00:34:47;;;;;;;;;;;15.80;99.90;;;;;;5058109;28;19912;-57
2023/10/10 00:37:21;;;;;;;;;;;15.80;99.90;;;;;;5039978;28;19937;-56
2023/10/10 00:39:53;;;;;;;;;;;15.80;99.90;;;;;;5057894;28;19913;-57
2023/10/10 00:42:40;;;;;;;;;;;15.80;99.90;;;;;;5057664;28;19912;-56
2023/10/10 00:45:10;;;;;;;;;;;15.70;99.90;;;;;;5039682;28;19936;-57
2023/10/10 00:47:43;;;;;;;;;;;15.60;99.90;;;;;;5039769;28;20011;-56
2023/10/10 00:50:15;;;;;;;;;;;15.60;99.90;;;;;;5057575;28;19958;-56
2023/10/10 00:52:45;;;;;;;;;;;15.50;99.90;;;;;;5057586;28;19954;-57
2023/10/10 00:55:11;;;;;;;;;;;15.60;99.90;;;;;;5039580;28;19909;-56
2023/10/10 00:57:37;;;;;;;;;;;15.50;99.90;;;;;;5057120;28;19909;-56
2023/10/10 01:00:09;;;;;;;;;;;15.40;99.90;;;;;;5039491;28;20273;-56
2023/10/10 01:02:37;;;;;;;;;;;15.40;99.90;;;;;;5057351;28;20008;-56
2023/10/10 01:05:12;;;;;;;;;;;15.30;99.90;;;;;;5057354;28;20365;-56
2023/10/10 01:07:38;;;;;;;;;;;15.20;99.90;;;;;;5057022;28;19917;-57
2023/10/10 01:10:11;;;;;;;;;;;15.20;99.90;;;;;;5056861;28;20362;-57
2023/10/10 01:12:39;;;;;;;;;;;15.20;99.90;;;;;;5056838;28;20263;-56
2023/10/10 01:15:12;;;;;;;;;;;15.10;99.90;;;;;;5056988;28;19909;-56
2023/10/10 01:17:38;;;;;;;;;;;15.00;99.90;;;;;;5039156;28;20046;-56
2023/10/10 01:22:49;;;;;;;;;;;14.90;99.90;;;;;;5055621;28;19999;-56
2023/10/10 01:28:13;;;;;;;;;;;14.70;99.90;;;;;;5056710;28;19957;-57
2023/10/10 01:30:57;;;;;;;;;;;14.70;99.90;;;;;;5056712;28;19985;-56
2023/10/10 01:33:25;;;;;;;;;;;14.60;99.90;;;;;;5055453;28;19908;-56
2023/10/10 01:35:55;;;;;;;;;;;14.50;99.90;;;;;;5038797;28;19909;-56
2023/10/10 01:38:27;;;;;;;;;;;14.50;99.90;;;;;;5056684;28;19909;-56
2023/10/10 01:40:57;;;;;;;;;;;14.50;99.90;;;;;;5056534;28;19909;-56
2023/10/10 01:43:24;;;;;;;;;;;14.50;99.90;;;;;;5054870;28;19912;-57
2023/10/10 01:46:08;;;;;;;;;;;14.50;99.90;;;;;;5056539;28;19912;-56
2023/10/10 01:48:43;;;;;;;;;;;14.50;99.90;;;;;;5056539;28;19908;-56
2023/10/10 01:51:09;;;;;;;;;;;14.50;99.90;;;;;;5056475;28;19909;-57
2023/10/10 01:53:40;;;;;;;;;;;14.50;99.90;;;;;;5056305;28;19962;-56
2023/10/10 01:56:06;;;;;;;;;;;14.50;99.90;;;;;;5056330;28;20282;-56
2023/10/10 01:58:36;;;;;;;;;;;14.50;99.90;;;;;;5054970;28;19987;-56
2023/10/10 02:01:13;;;;;;;;;;;14.60;99.90;;;;;;5054929;28;19909;-56
2023/10/10 02:03:39;;;;;;;;;;;14.70;99.90;;;;;;5054876;28;19913;-56
2023/10/10 02:06:09;;;;;;;;;;;14.60;99.90;;;;;;5054831;28;19952;-56
2023/10/10 02:08:35;;;;;;;;;;;14.60;99.90;;;;;;5054549;28;20424;-56
2023/10/10 02:11:06;;;;;;;;;;;14.70;99.90;;;;;;5054805;28;20010;-57
2023/10/10 02:13:33;;;;;;;;;;;14.70;99.90;;;;;;5054634;28;19915;-56
2023/10/10 02:16:00;;;;;;;;;;;14.70;99.90;;;;;;5054682;28;20265;-57
2023/10/10 02:18:39;;;;;;;;;;;14.70;99.90;;;;;;5055971;28;19909;-57
2023/10/10 02:21:07;;;;;;;;;;;14.70;99.90;;;;;;5056016;28;19917;-56
2023/10/10 02:23:34;;;;;;;;;;;14.60;99.90;;;;;;5054969;28;19912;-57
2023/10/10 02:26:14;;;;;;;;;;;14.60;99.90;;;;;;5037954;28;19913;-56
2023/10/10 02:28:49;;;;;;;;;;;14.70;99.90;;;;;;5055789;28;19919;-57
2023/10/10 02:31:16;;;;;;;;;;;14.80;99.90;;;;;;5055845;28;19909;-56
2023/10/10 02:33:48;;;;;;;;;;;14.90;99.90;;;;;;5055797;28;19912;-56
2023/10/10 02:36:30;;;;;;;;;;;14.90;99.90;;;;;;5037889;28;20390;-56
2023/10/10 02:39:02;;;;;;;;;;;14.90;99.90;;;;;;5055738;28;19908;-57
2023/10/10 02:41:48;;;;;;;;;;;14.80;99.90;;;;;;5037759;28;19909;-56
2023/10/10 02:44:26;;;;;;;;;;;14.80;99.90;;;;;;5037709;28;19913;-57
2023/10/10 02:46:54;;;;;;;;;;;14.80;99.90;;;;;;5037819;28;19930;-56
2023/10/10 02:49:29;;;;;;;;;;;14.80;99.90;;;;;;5056000;28;19913;-57
2023/10/10 02:51:57;;;;;;;;;;;14.70;99.90;;;;;;5037653;28;19909;-56
2023/10/10 02:57:27;;;;;;;;;;;14.80;99.90;;;;;;5054136;28;19909;-57
2023/10/10 02:59:59;;;;;;;;;;;14.80;99.90;;;;;;5055914;28;19959;-57
2023/10/10 03:02:40;;;;;;;;;;;14.70;99.90;;;;;;5055409;28;19912;-57
2023/10/10 03:05:14;;;;;;;;;;;14.70;99.90;;;;;;5037781;28;19915;-56
2023/10/10 03:07:42;;;;;;;;;;;14.70;99.90;;;;;;5055386;28;19952;-57
2023/10/10 03:12:41;;;;;;;;;;;14.70;99.90;;;;;;5055285;28;20403;-56
2023/10/10 03:15:15;;;;;;;;;;;14.70;99.90;;;;;;5037419;28;20310;-57
2023/10/10 03:20:25;;;;;;;;;;;14.60;99.90;;;;;;5054170;28;20255;-56
2023/10/10 03:25:47;;;;;;;;;;;14.70;99.90;;;;;;5054042;28;19909;-56
2023/10/10 03:28:22;;;;;;;;;;;14.70;99.90;;;;;;5037287;28;19909;-56
2023/10/10 03:30:52;;;;;;;;;;;14.60;99.90;;;;;;5053974;28;20370;-56
2023/10/10 03:36:23;;;;;;;;;;;14.60;99.90;;;;;;5057725;28;20363;-56
2023/10/10 05:25:45;;;;;;;;;;;14.30;99.90;;;;;;5055411;28;19915;-57
2023/10/10 05:28:10;;;;;;;;;;;14.30;99.90;;;;;;5055684;28;19913;-57
2023/10/10 05:30:45;;;;;;;;;;;14.20;99.90;;;;;;5056507;28;19919;-57
2023/10/10 05:33:12;;;;;;;;;;;14.20;99.90;;;;;;5056487;28;19915;-57
2023/10/10 05:35:48;;;;;;;;;;;14.20;99.90;;;;;;5056150;28;19916;-57
2023/10/10 05:38:19;;;;;;;;;;;14.30;99.90;;;;;;5056351;28;20361;-57
2023/10/10 05:40:47;;;;;;;;;;;14.30;99.90;;;;;;5056406;28;19916;-57
2023/10/10 05:43:15;;;;;;;;;;;14.30;99.90;;;;;;5053067;28;19955;-57
2023/10/10 05:45:44;;;;;;;;;;;14.40;99.90;;;;;;5045105;28;20373;-57
2023/10/10 05:48:11;;;;;;;;;;;14.50;99.90;;;;;;5054353;28;19920;-57
2023/10/10 05:50:37;;;;;;;;;;;14.50;99.90;;;;;;5045903;28;19932;-58
2023/10/10 05:53:06;;;;;;;;;;;14.70;99.90;;;;;;5054320;28;20003;-57
2023/10/10 05:55:34;;;;;;;;;;;15.20;99.90;;;;;;5052749;28;20341;-57
2023/10/10 05:58:03;;;;;;;;;;;15.60;99.90;;;;;;5054779;28;19983;-58
2023/10/10 06:00:32;;;;;;;;;;;15.90;99.90;;;;;;5067073;28;20060;-57
2023/10/10 06:02:58;;;;;;;;;;;16.00;99.90;;;;;;5075904;28;20007;-57
2023/10/10 06:05:23;;;;;;;;;;;16.00;99.90;;;;;;5075891;28;19951;-57
2023/10/10 06:07:49;;;;;;;;;;;16.20;99.90;;;;;;5061431;28;19956;-57
2023/10/10 06:10:16;;;;;;;;;;;16.50;99.90;;;;;;5043109;28;19909;-57
2023/10/10 06:12:42;;;;;;;;;;;16.70;99.90;;;;;;5018204;28;19913;-57
2023/10/10 06:15:08;;;;;;;;;;;16.80;99.90;;;;;;5035878;28;20412;-58
2023/10/10 06:17:34;;;;;;;;;;;16.90;99.90;;;;;;5049753;28;19927;-58
2023/10/10 06:20:00;;;;;;;;;;;17.00;99.90;;;;;;5052810;28;20385;-58
2023/10/10 06:22:29;;;;;;;;;;;17.10;99.90;;;;;;5055753;28;19935;-58
2023/10/10 06:24:58;;;;;;;;;;;17.30;99.90;;;;;;5055841;28;19916;-58
2023/10/10 06:27:32;;;;;;;;;;;17.40;99.90;;;;;;5049212;28;19909;-58
2023/10/10 06:29:58;;;;;;;;;;;17.50;99.90;;;;;;5039760;28;20358;-58
2023/10/10 06:32:25;;;;;;;;;;;17.60;99.90;;;;;;5035821;28;19905;-58
2023/10/10 06:35:25;;;;;;;;;;;17.50;99.90;;;;;;5035830;28;19963;-58
2023/10/10 06:37:38;;;;;;;;;;;17.30;99.90;;;;;;5038745;28;19935;-57
2023/10/10 06:40:09;;;;;;;;;;;17.40;99.90;;;;;;5055474;28;19913;-58
2023/10/10 06:42:38;;;;;;;;;;;17.40;99.90;;;;;;5055460;28;19913;-58
2023/10/10 06:45:09;;;;;;;;;;;17.40;99.90;;;;;;5048775;28;19913;-58
2023/10/10 06:47:39;;;;;;;;;;;17.40;99.90;;;;;;5040096;28;19916;-58
2023/10/10 06:50:10;;;;;;;;;;;17.50;99.90;;;;;;5051761;28;19913;-58
2023/10/10 06:52:36;;;;;;;;;;;17.90;99.90;;;;;;5053040;28;19909;-58
2023/10/10 06:55:10;;;;;;;;;;;18.30;99.90;;;;;;5041070;28;19909;-58
2023/10/10 06:57:41;;;;;;;;;;;18.50;99.90;;;;;;5031945;28;19909;-58
2023/10/10 07:00:38;;;;;;;;;;;18.60;99.90;;;;;;5033339;28;19948;-58
2023/10/10 07:02:55;;;;;;;;;;;19.10;99.90;;;;;;5034718;28;19935;-58
2023/10/10 07:05:27;;;;;;;;;;;19.30;99.90;;;;;;5035833;28;19917;-58
2023/10/10 07:08:19;;;;;;;;;;;19.50;98.90;;;;;;5054747;28;19920;-58
2023/10/10 07:10:42;;;;;;;;;;;20.10;97.10;;;;;;5059219;28;19915;-58
2023/10/10 07:13:18;;;;;;;;;;;20.50;96.80;;;;;;5058845;28;19909;-58
2023/10/10 07:15:51;;;;;;;;;;;20.50;95.10;;;;;;5059273;28;19913;-58
2023/10/10 07:18:22;;;;;;;;;;;20.50;94.20;;;;;;5058734;28;20372;-58
2023/10/10 07:21:17;;;;;;;;;;;21.20;94.80;;;;;;5058758;28;19916;-58
2023/10/10 07:24:02;;;;;;;;;;;22.90;92.70;;;;;;5059188;28;20360;-58
2023/10/10 07:26:40;;;;;;;;;;;23.70;88.00;;;;;;5058876;28;20316;-58
2023/10/10 07:29:26;;;;;;;;;;;23.40;82.20;;;;;;5058580;28;19974;-58
2023/10/10 07:31:53;;;;;;;;;;;23.50;84.50;;;;;;5058894;28;19909;-58
2023/10/10 07:34:19;;;;;;;;;;;23.30;84.60;;;;;;5058669;28;20373;-58
2023/10/10 07:36:50;;;;;;;;;;;23.40;85.20;;;;;;5059017;28;19912;-58
2023/10/10 07:39:36;;;;;;;;;;;23.20;85.50;;;;;;5059115;28;19908;-58
2023/10/10 07:42:09;;;;;;;;;;;23.10;86.70;;;;;;5059001;28;19908;-59
2023/10/10 07:44:37;;;;;;;;;;;22.70;86.10;;;;;;5059027;28;19958;-59
2023/10/10 07:49:35;;;;;;;;;;;22.50;87.20;;;;;;5058636;28;19915;-59
2023/10/10 07:52:04;;;;;;;;;;;22.60;89.10;;;;;;5059044;28;20580;-58
2023/10/10 07:54:38;;;;;;;;;;;22.90;86.60;;;;;;5059006;28;19915;-58
2023/10/10 07:57:12;;;;;;;;;;;22.90;85.70;;;;;;5058473;28;19960;-59
2023/10/10 07:59:37;;;;;;;;;;;22.70;85.80;;;;;;5058702;28;19909;-58
2023/10/10 08:04:50;;;;;;;;;;;22.50;87.60;;;;;;5058241;28;19924;-59
2023/10/10 08:07:19;;;;;;;;;;;22.80;87.50;;;;;;5058558;28;19912;-59
2023/10/10 08:09:48;;;;;;;;;;;22.60;87.00;;;;;;5058623;28;19915;-59
2023/10/10 08:12:15;;;;;;;;;;;22.50;87.80;;;;;;5057516;28;19905;-59
2023/10/10 08:14:41;;;;;;;;;;;22.10;88.90;;;;;;5052069;28;19987;-58
2023/10/10 08:17:18;;;;;;;;;;;22.10;87.00;;;;;;5049760;28;19909;-58
2023/10/10 08:19:51;;;;;;;;;;;22.10;89.00;;;;;;5044955;28;19913;-58
2023/10/10 08:22:25;;;;;;;;;;;22.00;87.80;;;;;;5058403;28;20004;-58
2023/10/10 08:24:51;;;;;;;;;;;22.00;88.50;;;;;;5058311;28;20344;-58
2023/10/10 08:27:17;;;;;;;;;;;21.80;88.80;;;;;;5057696;28;19909;-58
2023/10/10 08:29:43;;;;;;;;;;;22.10;88.20;;;;;;5057766;28;19931;-58
2023/10/10 08:32:09;;;;;;;;;;;22.70;88.60;;;;;;5056102;28;20022;-58
2023/10/10 08:34:38;;;;;;;;;;;22.80;83.30;;;;;;5057518;28;19916;-58
2023/10/10 08:37:05;;;;;;;;;;;22.90;84.20;;;;;;5051005;28;19909;-58
2023/10/10 08:39:37;;;;;;;;;;;23.10;83.10;;;;;;5046797;28;19919;-58
2023/10/10 08:42:14;;;;;;;;;;;23.30;82.90;;;;;;5048052;28;19916;-58
2023/10/10 08:44:41;;;;;;;;;;;23.60;80.30;;;;;;5049557;28;20290;-58
2023/10/10 08:47:08;;;;;;;;;;;23.90;83.30;;;;;;5056915;28;19912;-58
2023/10/10 08:49:33;;;;;;;;;;;24.30;78.80;;;;;;5056667;28;20413;-58
2023/10/10 08:52:03;;;;;;;;;;;24.40;76.50;;;;;;5049899;28;19940;-58
2023/10/10 08:54:29;;;;;;;;;;;24.40;73.40;;;;;;5051028;28;20014;-58
2023/10/10 08:57:09;;;;;;;;;;;24.80;73.90;;;;;;5036935;28;20321;-58
2023/10/10 08:59:37;;;;;;;;;;;24.50;74.60;;;;;;5037120;28;19916;-58
2023/10/10 09:02:12;;;;;;;;;;;24.90;72.70;;;;;;5037232;28;19983;-58
2023/10/10 09:04:38;;;;;;;;;;;25.60;71.60;;;;;;5036806;28;20359;-58
2023/10/10 09:07:08;;;;;;;;;;;25.70;69.00;;;;;;5036980;28;20366;-58
2023/10/10 09:09:34;;;;;;;;;;;26.20;66.90;;;;;;5038452;28;19915;-58
2023/10/10 09:12:04;;;;;;;;;;;27.30;61.50;;;;;;5055656;28;19912;-58
2023/10/10 09:14:40;;;;;;;;;;;27.50;58.90;;;;;;5050713;28;19909;-58
2023/10/10 09:17:07;;;;;;;;;;;28.20;57.00;;;;;;5048806;28;19908;-59
2023/10/10 09:19:36;;;;;;;;;;;28.70;50.90;;;;;;5056188;28;20301;-58
2023/10/10 09:22:12;;;;;;;;;;;29.60;51.20;;;;;;5056889;28;19909;-59
2023/10/10 09:24:40;;;;;;;;;;;30.40;48.90;;;;;;5056231;28;19913;-59
2023/10/10 09:27:21;;;;;;;;;;;30.30;45.70;;;;;;5056471;28;19935;-59
2023/10/10 09:29:54;;;;;;;;;;;30.40;39.80;;;;;;5054895;28;19912;-59
2023/10/10 09:32:34;;;;;;;;;;;30.50;39.00;;;;;;5049359;28;19909;-59
2023/10/10 09:35:00;;;;;;;;;;;30.20;40.40;;;;;;5041559;28;20101;-60
2023/10/10 09:37:34;;;;;;;;;;;30.80;41.90;;;;;;5036447;28;19909;-60
2023/10/10 09:40:04;;;;;;;;;;;30.70;38.50;;;;;;5046960;28;20277;-60
2023/10/10 09:42:52;;;;;;;;;;;30.20;38.80;;;;;;5043923;28;19912;-60
2023/10/10 09:45:35;;;;;;;;;;;29.50;40.00;;;;;;5050589;28;19959;-60
2023/10/10 09:48:06;;;;;;;;;;;28.50;42.00;;;;;;5056067;28;19912;-60
2023/10/10 09:50:37;;;;;;;;;;;27.90;44.80;;;;;;5054517;28;19915;-60
2023/10/10 09:53:19;;;;;;;;;;;28.10;44.80;;;;;;5056619;28;19963;-60
2023/10/10 09:55:45;;;;;;;;;;;29.10;43.70;;;;;;5055002;28;19974;-60
2023/10/10 09:58:24;;;;;;;;;;;29.50;41.80;;;;;;5056538;28;19909;-60
2023/10/10 10:00:50;;;;;;;;;;;29.10;41.70;;;;;;5056128;28;19915;-60
2023/10/10 10:03:31;;;;;;;;;;;28.80;41.30;;;;;;5054657;28;19951;-60
2023/10/10 10:09:01;;;;;;;;;;;28.20;43.40;;;;;;5053886;28;20005;-60
2023/10/10 10:11:35;;;;;;;;;;;28.20;43.60;;;;;;5045579;28;19909;-60
2023/10/10 10:14:17;;;;;;;;;;;27.90;43.20;;;;;;5044898;28;19931;-60
2023/10/10 10:17:12;;;;;;;;;;;28.20;45.40;;;;;;5041906;28;20373;-61
2023/10/10 10:19:45;;;;;;;;;;;28.70;42.70;;;;;;5055290;28;19909;-60
2023/10/10 10:22:17;;;;;;;;;;;29.30;40.80;;;;;;5051256;28;19920;-60
2023/10/10 10:24:45;;;;;;;;;;;29.30;40.60;;;;;;5044385;28;19917;-60
2023/10/10 10:29:53;;;;;;;;;;;29.70;39.60;;;;;;5035711;28;19932;-60
2023/10/10 10:32:23;;;;;;;;;;;29.80;37.00;;;;;;5038026;28;20274;-60
2023/10/10 10:34:56;;;;;;;;;;;30.00;37.70;;;;;;5035655;28;19945;-60
2023/10/10 10:37:23;;;;;;;;;;;30.10;36.70;;;;;;5040441;28;20007;-60
2023/10/10 10:42:42;;;;;;;;;;;30.40;36.80;;;;;;5034947;28;19921;-60
2023/10/10 10:45:41;;;;;;;;;;;28.70;35.90;;;;;;5046789;28;19916;-60
2023/10/10 10:48:29;;;;;;;;;;;29.60;37.60;;;;;;5036531;28;19916;-60
2023/10/10 10:51:01;;;;;;;;;;;30.30;36.30;;;;;;5054118;28;19982;-60
2023/10/10 10:53:35;;;;;;;;;;;30.10;34.50;;;;;;5054693;28;19909;-60
2023/10/10 11:01:22;;;;;;;;;;;28.50;37.50;;;;;;5055284;28;19913;-60
2023/10/10 11:03:51;;;;;;;;;;;28.30;38.00;;;;;;5054672;28;20081;-60
2023/10/10 11:06:20;;;;;;;;;;;27.30;38.90;;;;;;5055008;28;20274;-60
2023/10/10 11:11:36;;;;;;;;;;;26.80;41.30;;;;;;5054965;28;20282;-60
2023/10/10 11:16:56;;;;;;;;;;;26.90;41.30;;;;;;5054658;28;19913;-60
2023/10/10 11:21:55;;;;;;;;;;;26.90;42.80;;;;;;5044754;28;19913;-60
2023/10/10 11:24:25;;;;;;;;;;;27.40;41.70;;;;;;5034683;28;19923;-60
2023/10/10 11:29:45;;;;;;;;;;;28.40;41.50;;;;;;5038180;28;20273;-60
2023/10/10 11:32:36;;;;;;;;;;;28.30;39.50;;;;;;5035916;28;20059;-60
2023/10/10 11:35:17;;;;;;;;;;;28.10;38.80;;;;;;5035065;28;19909;-60
2023/10/10 11:37:59;;;;;;;;;;;27.30;40.80;;;;;;5049093;28;19917;-60
2023/10/10 11:43:03;;;;;;;;;;;26.70;41.00;;;;;;5055029;28;19912;-60
2023/10/10 11:45:29;;;;;;;;;;;26.60;42.30;;;;;;5054407;28;20370;-60
2023/10/10 11:48:00;;;;;;;;;;;26.20;43.80;;;;;;5053973;28;20330;-60
2023/10/10 11:50:45;;;;;;;;;;;26.00;44.20;;;;;;5054594;28;19908;-60
2023/10/10 11:53:12;;;;;;;;;;;26.00;44.70;;;;;;5054872;28;20278;-60
2023/10/10 11:55:40;;;;;;;;;;;25.70;48.30;;;;;;5056971;28;20404;-60
2023/10/10 11:58:16;;;;;;;;;;;25.40;47.10;;;;;;5058772;28;20266;-60
2023/10/10 12:00:43;;;;;;;;;;;25.00;49.60;;;;;;5058645;28;19920;-60
2023/10/10 12:03:13;;;;;;;;;;;24.70;52.60;;;;;;5057928;28;20373;-60
2023/10/10 12:05:49;;;;;;;;;;;24.30;54.00;;;;;;5058219;28;20441;-60
2023/10/10 12:08:24;;;;;;;;;;;24.20;55.00;;;;;;5057790;28;19913;-60
2023/10/10 12:10:56;;;;;;;;;;;24.10;54.60;;;;;;5058232;28;19909;-61
2023/10/10 12:16:00;;;;;;;;;;;24.30;51.90;;;;;;5057694;28;19908;-60
2023/10/10 12:18:30;;;;;;;;;;;24.80;53.00;;;;;;5057863;28;19921;-60
2023/10/10 12:20:57;;;;;;;;;;;24.80;51.00;;;;;;5057424;28;19952;-60
2023/10/10 12:23:23;;;;;;;;;;;25.00;52.50;;;;;;5057719;28;19967;-60
2023/10/10 12:25:54;;;;;;;;;;;25.30;51.50;;;;;;5057654;28;20277;-60
2023/10/10 12:28:20;;;;;;;;;;;25.50;48.40;;;;;;5054252;28;20012;-60
2023/10/10 12:30:47;;;;;;;;;;;25.80;47.00;;;;;;5037666;28;20004;-60
2023/10/10 12:33:15;;;;;;;;;;;26.10;47.60;;;;;;5037647;28;19952;-60
2023/10/10 12:35:47;;;;;;;;;;;26.40;46.90;;;;;;5037380;28;19913;-60
2023/10/10 12:38:20;;;;;;;;;;;26.20;44.50;;;;;;5036948;28;20389;-60
2023/10/10 12:40:47;;;;;;;;;;;26.40;45.50;;;;;;5037804;28;19932;-60
2023/10/10 12:43:12;;;;;;;;;;;26.60;45.40;;;;;;5037404;28;19917;-60
2023/10/10 12:45:38;;;;;;;;;;;26.80;46.10;;;;;;5037038;28;19911;-60
2023/10/10 12:48:13;;;;;;;;;;;26.80;45.30;;;;;;5041554;28;19909;-60
2023/10/10 12:50:42;;;;;;;;;;;27.00;45.90;;;;;;5058030;28;20620;-60
2023/10/10 12:53:08;;;;;;;;;;;27.10;45.60;;;;;;5057673;28;19909;-60
2023/10/10 12:55:35;;;;;;;;;;;27.30;41.70;;;;;;5057787;28;19912;-60
2023/10/10 12:58:10;;;;;;;;;;;26.90;42.20;;;;;;5057843;28;19913;-60
2023/10/10 13:00:36;;;;;;;;;;;26.80;41.80;;;;;;5057573;28;19909;-60
2023/10/10 13:03:06;;;;;;;;;;;26.80;41.50;;;;;;5057526;28;20700;-60
2023/10/10 13:05:33;;;;;;;;;;;27.00;42.70;;;;;;5057181;28;20312;-60
2023/10/10 13:07:59;;;;;;;;;;;27.00;42.40;;;;;;5056221;28;19956;-60
2023/10/10 13:10:30;;;;;;;;;;;26.60;41.00;;;;;;5057618;28;19970;-60
2023/10/10 13:12:57;;;;;;;;;;;26.70;42.90;;;;;;5057677;28;19909;-60
2023/10/10 13:15:30;;;;;;;;;;;26.40;44.00;;;;;;5056847;28;19908;-60
2023/10/10 13:18:19;;;;;;;;;;;26.10;45.20;;;;;;5057089;28;19916;-60
2023/10/10 13:20:50;;;;;;;;;;;26.00;46.70;;;;;;5056510;28;20351;-60
2023/10/10 13:23:16;;;;;;;;;;;26.00;48.30;;;;;;5056329;28;19956;-60
2023/10/10 13:25:42;;;;;;;;;;;25.80;45.70;;;;;;5056601;28;19912;-60
2023/10/10 13:28:17;;;;;;;;;;;25.60;46.40;;;;;;5056616;28;20368;-60
2023/10/10 13:30:46;;;;;;;;;;;25.70;48.40;;;;;;5056299;28;19913;-60
2023/10/10 13:33:15;;;;;;;;;;;25.70;47.00;;;;;;5056785;28;19954;-60
2023/10/10 13:35:44;;;;;;;;;;;25.70;47.60;;;;;;5056247;28;19958;-60
2023/10/10 13:38:10;;;;;;;;;;;25.60;47.00;;;;;;5056504;28;19909;-60
2023/10/10 13:40:45;;;;;;;;;;;25.60;45.00;;;;;;5056509;28;19916;-60
2023/10/10 13:43:22;;;;;;;;;;;25.60;45.50;;;;;;5056235;28;20001;-60
2023/10/10 13:45:48;;;;;;;;;;;25.50;45.60;;;;;;5056299;28;19915;-60
2023/10/10 13:48:17;;;;;;;;;;;25.50;46.40;;;;;;5056531;28;20477;-60
2023/10/10 13:50:45;;;;;;;;;;;25.40;46.60;;;;;;5056357;28;19959;-60
2023/10/10 13:53:12;;;;;;;;;;;25.40;44.80;;;;;;5056307;28;20325;-60
2023/10/10 13:55:44;;;;;;;;;;;25.40;43.70;;;;;;5056310;28;19908;-60
2023/10/10 13:58:12;;;;;;;;;;;25.30;42.70;;;;;;5056378;28;19909;-60
2023/10/10 14:00:39;;;;;;;;;;;25.30;43.00;;;;;;5055746;28;19975;-60
2023/10/10 14:03:14;;;;;;;;;;;25.20;43.80;;;;;;5056172;28;19962;-60
2023/10/10 14:05:59;;;;;;;;;;;24.90;43.00;;;;;;5056134;28;19969;-60
2023/10/10 14:08:26;;;;;;;;;;;24.70;43.50;;;;;;5055767;28;20003;-60
2023/10/10 14:10:54;;;;;;;;;;;24.60;45.90;;;;;;5055999;28;19915;-60
2023/10/10 14:13:20;;;;;;;;;;;24.70;45.30;;;;;;5055655;28;19909;-60
2023/10/10 14:15:56;;;;;;;;;;;24.80;44.80;;;;;;5055688;28;20278;-60
2023/10/10 14:18:26;;;;;;;;;;;24.80;44.60;;;;;;5035931;28;20373;-60
2023/10/10 14:20:53;;;;;;;;;;;24.50;46.60;;;;;;5036007;28;20011;-60
2023/10/10 14:23:22;;;;;;;;;;;24.30;46.50;;;;;;5035806;28;19919;-60
2023/10/10 14:25:51;;;;;;;;;;;24.10;48.20;;;;;;5035796;28;19909;-60
2023/10/10 14:28:18;;;;;;;;;;;23.90;47.60;;;;;;5035989;28;20362;-60
2023/10/10 14:30:44;;;;;;;;;;;23.70;49.20;;;;;;5035548;28;19956;-60
2023/10/10 14:33:11;;;;;;;;;;;23.40;50.60;;;;;;5036014;28;19912;-60
2023/10/10 14:35:39;;;;;;;;;;;23.20;51.50;;;;;;5035798;28;20278;-60
2023/10/10 14:38:05;;;;;;;;;;;23.00;50.00;;;;;;5035496;28;19936;-60
2023/10/10 14:40:33;;;;;;;;;;;22.80;51.10;;;;;;5035738;28;19913;-60
2023/10/10 14:43:06;;;;;;;;;;;22.60;51.80;;;;;;5035530;28;20340;-60
2023/10/10 14:45:32;;;;;;;;;;;22.50;53.40;;;;;;5035456;28;19948;-60
2023/10/10 14:47:58;;;;;;;;;;;22.40;54.40;;;;;;5035695;28;19955;-60
2023/10/10 14:50:24;;;;;;;;;;;22.40;53.20;;;;;;5035399;28;19909;-60
2023/10/10 14:52:50;;;;;;;;;;;22.50;53.90;;;;;;5035433;28;19913;-60
2023/10/10 14:55:25;;;;;;;;;;;22.50;54.70;;;;;;5035753;28;19909;-60
2023/10/10 14:57:55;;;;;;;;;;;22.40;53.80;;;;;;5035760;28;19955;-60
2023/10/10 15:00:22;;;;;;;;;;;22.40;54.80;;;;;;5035330;28;19913;-59
2023/10/10 15:02:52;;;;;;;;;;;22.40;53.90;;;;;;5035751;28;20278;-60
2023/10/10 15:05:19;;;;;;;;;;;22.20;54.90;;;;;;5035522;28;19956;-60
2023/10/10 15:07:45;;;;;;;;;;;22.20;56.10;;;;;;5035127;28;20000;-59
2023/10/10 15:10:12;;;;;;;;;;;22.10;56.30;;;;;;5035490;28;19909;-60
2023/10/10 15:12:38;;;;;;;;;;;21.90;56.60;;;;;;5035278;28;20433;-60
2023/10/10 15:15:04;;;;;;;;;;;21.70;58.00;;;;;;5017683;28;19909;-59
2023/10/10 15:17:30;;;;;;;;;;;21.60;58.20;;;;;;5035364;28;19949;-59
2023/10/10 15:19:56;;;;;;;;;;;21.40;57.50;;;;;;5035353;28;19909;-60
2023/10/10 15:22:22;;;;;;;;;;;21.30;58.50;;;;;;5034997;28;19915;-59
2023/10/10 15:24:50;;;;;;;;;;;21.20;59.40;;;;;;5035441;28;19913;-59
2023/10/10 15:27:20;;;;;;;;;;;21.00;60.00;;;;;;5035372;28;19956;-59
2023/10/10 15:29:47;;;;;;;;;;;20.80;60.30;;;;;;5035778;28;19916;-59
2023/10/10 15:32:13;;;;;;;;;;;20.60;59.60;;;;;;5039014;28;20347;-59
2023/10/10 15:34:39;;;;;;;;;;;20.50;61.10;;;;;;5039098;28;19913;-59
2023/10/10 15:37:14;;;;;;;;;;;20.30;62.10;;;;;;5038821;28;20351;-59
2023/10/10 15:39:41;;;;;;;;;;;20.20;62.50;;;;;;5039109;28;19915;-59
2023/10/10 15:42:07;;;;;;;;;;;20.00;63.20;;;;;;5038695;28;20370;-59
2023/10/10 15:44:33;;;;;;;;;;;19.90;64.90;;;;;;5038655;28;19917;-59
2023/10/10 15:47:01;;;;;;;;;;;19.80;67.30;;;;;;5021406;28;19909;-59
2023/10/10 15:49:27;;;;;;;;;;;19.80;67.50;;;;;;5038826;28;19909;-59
2023/10/10 15:51:53;;;;;;;;;;;19.60;69.00;;;;;;5038453;28;20259;-59
2023/10/10 15:54:19;;;;;;;;;;;19.50;70.00;;;;;;5038798;28;20438;-59
2023/10/10 15:56:47;;;;;;;;;;;19.40;70.50;;;;;;5038772;28;19995;-59
2023/10/10 15:59:16;;;;;;;;;;;19.20;72.40;;;;;;5038488;28;19909;-59
2023/10/10 16:01:46;;;;;;;;;;;19.00;73.00;;;;;;5038253;28;19916;-59
2023/10/10 16:04:13;;;;;;;;;;;19.00;72.60;;;;;;5038548;28;19976;-59
2023/10/10 16:06:41;;;;;;;;;;;18.90;72.60;;;;;;5038165;28;19909;-59
2023/10/10 16:09:09;;;;;;;;;;;18.80;73.20;;;;;;5038389;28;19921;-59
2023/10/10 16:11:35;;;;;;;;;;;18.90;74.20;;;;;;5038290;28;19905;-59
2023/10/10 16:14:11;;;;;;;;;;;18.80;75.30;;;;;;5037955;28;19924;-59
2023/10/10 16:16:45;;;;;;;;;;;18.90;76.90;;;;;;5044319;28;19908;-59
2023/10/10 16:19:13;;;;;;;;;;;18.70;77.90;;;;;;5058431;28;20575;-59
2023/10/10 16:21:39;;;;;;;;;;;18.70;80.00;;;;;;5057500;28;19915;-59
2023/10/10 16:24:05;;;;;;;;;;;18.60;81.00;;;;;;5058160;28;19912;-59
2023/10/10 16:26:31;;;;;;;;;;;18.60;82.80;;;;;;5057995;28;20382;-59
2023/10/10 16:28:58;;;;;;;;;;;18.50;86.40;;;;;;5058067;28;19909;-59
2023/10/10 16:31:31;;;;;;;;;;;18.40;87.60;;;;;;5057873;28;19908;-59
2023/10/10 16:33:57;;;;;;;;;;;18.30;89.90;;;;;;5058080;28;19915;-59
2023/10/10 16:36:23;;;;;;;;;;;18.30;91.90;;;;;;5057740;28;19909;-59
2023/10/10 16:38:52;;;;;;;;;;;18.30;93.70;;;;;;5057771;28;20362;-59
2023/10/10 16:41:22;;;;;;;;;;;18.20;95.00;;;;;;5056739;28;19908;-59
2023/10/10 16:43:48;;;;;;;;;;;18.20;95.50;;;;;;5057568;28;19959;-59
2023/10/10 16:46:15;;;;;;;;;;;18.10;96.00;;;;;;5057781;28;19909;-59
2023/10/10 16:48:40;;;;;;;;;;;18.00;97.00;;;;;;5057645;28;20359;-59
2023/10/10 16:51:13;;;;;;;;;;;17.90;97.70;;;;;;5057280;28;19908;-59
2023/10/10 16:53:43;;;;;;;;;;;17.80;98.40;;;;;;5057513;28;20358;-59
2023/10/10 16:56:09;;;;;;;;;;;17.70;99.30;;;;;;5057482;28;19909;-59
2023/10/10 16:58:38;;;;;;;;;;;17.70;99.50;;;;;;5057192;28;19908;-59
2023/10/10 17:01:12;;;;;;;;;;;17.60;99.90;;;;;;5057382;28;19908;-59
2023/10/10 17:03:39;;;;;;;;;;;17.50;99.90;;;;;;5057238;28;19935;-59
2023/10/10 17:06:08;;;;;;;;;;;17.40;99.90;;;;;;5057058;28;19909;-59
2023/10/10 17:08:35;;;;;;;;;;;17.40;99.90;;;;;;5057025;28;19923;-59
2023/10/10 17:11:05;;;;;;;;;;;17.50;99.90;;;;;;5057194;28;19936;-59
2023/10/10 17:13:41;;;;;;;;;;;17.40;99.90;;;;;;5057108;28;19992;-59
2023/10/10 17:16:11;;;;;;;;;;;17.50;99.90;;;;;;5057180;28;19962;-59
2023/10/10 17:18:44;;;;;;;;;;;17.40;99.90;;;;;;5057239;28;19932;-59